sensor_id;sensor_type;location;lat;lon;timestamp;P1;durP1;ratioP1;P2;durP2;ratioP2
28774;SDS011;15926;51.348;6.596;2022-08-25T00:01:10;2.92;;;2.72;;
28774;SDS011;15926;51.348;6.596;2022-08-25T00:03:38;3.13;;;2.83;;
28774;SDS011;15926;51.348;6.596;2022-08-25T00:06:05;5.47;;;3.17;;
28774;SDS011;15926;51.348;6.596;2022-08-25T00:08:31;4.63;;;2.63;;
28774;SDS011;15926;51.348;6.596;2022-08-25T00:10:59;5.38;;;2.50;;
28774;SDS011;15926;51.348;6.596;2022-08-25T00:13:25;5.97;;;3.42;;
28774;SDS011;15926;51.348;6.596;2022-08-25T00:15:52;3.67;;;3.08;;
28774;SDS011;15926;51.348;6.596;2022-08-25T00:18:17;3.67;;;3.22;;
28774;SDS011;15926;51.348;6.596;2022-08-25T00:20:44;5.80;;;3.08;;
28774;SDS011;15926;51.348;6.596;2022-08-25T00:23:10;6.85;;;3.05;;
28774;SDS011;15926;51.348;6.596;2022-08-25T00:25:36;3.22;;;3.03;;
28774;SDS011;15926;51.348;6.596;2022-08-25T00:28:02;4.00;;;3.05;;
28774;SDS011;15926;51.348;6.596;2022-08-25T00:30:28;4.07;;;3.30;;
28774;SDS011;15926;51.348;6.596;2022-08-25T00:32:54;4.57;;;2.97;;
28774;SDS011;15926;51.348;6.596;2022-08-25T00:35:20;3.78;;;3.30;;
28774;SDS011;15926;51.348;6.596;2022-08-25T00:37:47;3.95;;;3.20;;
28774;SDS011;15926;51.348;6.596;2022-08-25T00:40:13;5.10;;;3.35;;
28774;SDS011;15926;51.348;6.596;2022-08-25T00:42:40;3.20;;;2.90;;
28774;SDS011;15926;51.348;6.596;2022-08-25T00:45:06;3.47;;;3.05;;
28774;SDS011;15926;51.348;6.596;2022-08-25T00:47:33;3.20;;;3.00;;
28774;SDS011;15926;51.348;6.596;2022-08-25T00:50:00;4.28;;;3.00;;
28774;SDS011;15926;51.348;6.596;2022-08-25T00:52:32;5.07;;;3.30;;
28774;SDS011;15926;51.348;6.596;2022-08-25T00:55:03;4.18;;;3.00;;
28774;SDS011;15926;51.348;6.596;2022-08-25T00:57:32;3.33;;;2.50;;
28774;SDS011;15926;51.348;6.596;2022-08-25T00:59:58;3.45;;;3.13;;
28774;SDS011;15926;51.348;6.596;2022-08-25T01:02:25;4.35;;;2.70;;
28774;SDS011;15926;51.348;6.596;2022-08-25T01:04:51;11.48;;;2.90;;
28774;SDS011;15926;51.348;6.596;2022-08-25T01:07:17;4.10;;;2.80;;
28774;SDS011;15926;51.348;6.596;2022-08-25T01:09:45;6.20;;;3.22;;
28774;SDS011;15926;51.348;6.596;2022-08-25T01:12:11;4.22;;;2.80;;
28774;SDS011;15926;51.348;6.596;2022-08-25T01:14:37;2.90;;;2.70;;
28774;SDS011;15926;51.348;6.596;2022-08-25T01:17:03;4.65;;;3.22;;
28774;SDS011;15926;51.348;6.596;2022-08-25T01:19:29;2.70;;;2.50;;
28774;SDS011;15926;51.348;6.596;2022-08-25T01:21:57;3.85;;;3.08;;
28774;SDS011;15926;51.348;6.596;2022-08-25T01:24:33;4.57;;;2.80;;
28774;SDS011;15926;51.348;6.596;2022-08-25T01:27:00;3.15;;;2.85;;
28774;SDS011;15926;51.348;6.596;2022-08-25T01:29:26;3.35;;;3.13;;
28774;SDS011;15926;51.348;6.596;2022-08-25T01:32:00;3.47;;;2.97;;
28774;SDS011;15926;51.348;6.596;2022-08-25T01:34:27;3.10;;;2.90;;
28774;SDS011;15926;51.348;6.596;2022-08-25T01:36:54;4.03;;;2.95;;
28774;SDS011;15926;51.348;6.596;2022-08-25T01:39:20;3.95;;;2.72;;
28774;SDS011;15926;51.348;6.596;2022-08-25T01:44:30;3.53;;;2.70;;
28774;SDS011;15926;51.348;6.596;2022-08-25T01:46:57;3.72;;;3.08;;
28774;SDS011;15926;51.348;6.596;2022-08-25T01:49:23;2.42;;;2.22;;
28774;SDS011;15926;51.348;6.596;2022-08-25T01:51:55;3.10;;;2.80;;
28774;SDS011;15926;51.348;6.596;2022-08-25T01:54:21;4.00;;;2.90;;
28774;SDS011;15926;51.348;6.596;2022-08-25T01:56:48;4.20;;;2.90;;
28774;SDS011;15926;51.348;6.596;2022-08-25T01:59:15;3.00;;;2.80;;
28774;SDS011;15926;51.348;6.596;2022-08-25T02:01:41;5.45;;;3.47;;
28774;SDS011;15926;51.348;6.596;2022-08-25T02:04:07;4.07;;;3.10;;
28774;SDS011;15926;51.348;6.596;2022-08-25T02:06:33;3.00;;;2.67;;
28774;SDS011;15926;51.348;6.596;2022-08-25T02:09:01;3.95;;;2.60;;
28774;SDS011;15926;51.348;6.596;2022-08-25T02:13:55;4.03;;;3.00;;
28774;SDS011;15926;51.348;6.596;2022-08-25T02:16:23;10.00;;;3.17;;
28774;SDS011;15926;51.348;6.596;2022-08-25T02:18:52;7.82;;;3.30;;
28774;SDS011;15926;51.348;6.596;2022-08-25T02:21:18;8.00;;;3.10;;
28774;SDS011;15926;51.348;6.596;2022-08-25T02:23:44;3.83;;;3.05;;
28774;SDS011;15926;51.348;6.596;2022-08-25T02:26:10;3.65;;;3.35;;
28774;SDS011;15926;51.348;6.596;2022-08-25T02:28:37;4.80;;;3.17;;
28774;SDS011;15926;51.348;6.596;2022-08-25T02:31:04;3.20;;;2.90;;
28774;SDS011;15926;51.348;6.596;2022-08-25T02:33:30;3.30;;;3.05;;
28774;SDS011;15926;51.348;6.596;2022-08-25T02:35:57;6.30;;;3.20;;
28774;SDS011;15926;51.348;6.596;2022-08-25T02:38:23;6.68;;;2.90;;
28774;SDS011;15926;51.348;6.596;2022-08-25T02:40:51;3.40;;;2.65;;
28774;SDS011;15926;51.348;6.596;2022-08-25T02:43:17;3.35;;;3.00;;
28774;SDS011;15926;51.348;6.596;2022-08-25T02:45:43;6.18;;;3.08;;
28774;SDS011;15926;51.348;6.596;2022-08-25T02:48:09;3.78;;;3.15;;
28774;SDS011;15926;51.348;6.596;2022-08-25T02:50:35;3.30;;;3.00;;
28774;SDS011;15926;51.348;6.596;2022-08-25T02:53:01;3.78;;;3.47;;
28774;SDS011;15926;51.348;6.596;2022-08-25T02:55:27;5.00;;;3.88;;
28774;SDS011;15926;51.348;6.596;2022-08-25T02:57:53;4.03;;;3.65;;
28774;SDS011;15926;51.348;6.596;2022-08-25T03:00:19;4.13;;;3.20;;
28774;SDS011;15926;51.348;6.596;2022-08-25T03:02:45;4.40;;;3.55;;
28774;SDS011;15926;51.348;6.596;2022-08-25T03:05:12;3.33;;;3.03;;
28774;SDS011;15926;51.348;6.596;2022-08-25T03:07:39;3.50;;;3.20;;
28774;SDS011;15926;51.348;6.596;2022-08-25T03:10:07;3.42;;;3.20;;
28774;SDS011;15926;51.348;6.596;2022-08-25T03:12:33;6.28;;;3.40;;
28774;SDS011;15926;51.348;6.596;2022-08-25T03:14:59;3.30;;;3.00;;
28774;SDS011;15926;51.348;6.596;2022-08-25T03:17:25;4.03;;;3.63;;
28774;SDS011;15926;51.348;6.596;2022-08-25T03:19:51;5.20;;;3.80;;
28774;SDS011;15926;51.348;6.596;2022-08-25T03:22:17;3.80;;;3.50;;
28774;SDS011;15926;51.348;6.596;2022-08-25T03:24:43;3.45;;;3.25;;
28774;SDS011;15926;51.348;6.596;2022-08-25T03:27:09;3.83;;;3.53;;
28774;SDS011;15926;51.348;6.596;2022-08-25T03:29:35;3.55;;;3.25;;
28774;SDS011;15926;51.348;6.596;2022-08-25T03:32:01;4.05;;;3.75;;
28774;SDS011;15926;51.348;6.596;2022-08-25T03:34:28;4.82;;;3.45;;
28774;SDS011;15926;51.348;6.596;2022-08-25T03:36:54;3.97;;;3.30;;
28774;SDS011;15926;51.348;6.596;2022-08-25T03:39:21;4.15;;;3.72;;
28774;SDS011;15926;51.348;6.596;2022-08-25T03:41:48;3.72;;;3.38;;
28774;SDS011;15926;51.348;6.596;2022-08-25T03:44:14;3.72;;;3.42;;
28774;SDS011;15926;51.348;6.596;2022-08-25T03:46:42;3.85;;;3.60;;
28774;SDS011;15926;51.348;6.596;2022-08-25T03:49:09;3.78;;;3.47;;
28774;SDS011;15926;51.348;6.596;2022-08-25T03:51:38;4.35;;;3.47;;
28774;SDS011;15926;51.348;6.596;2022-08-25T03:54:04;3.28;;;2.97;;
28774;SDS011;15926;51.348;6.596;2022-08-25T03:56:30;4.13;;;3.72;;
28774;SDS011;15926;51.348;6.596;2022-08-25T03:58:56;5.95;;;3.90;;
28774;SDS011;15926;51.348;6.596;2022-08-25T04:01:22;4.32;;;3.90;;
28774;SDS011;15926;51.348;6.596;2022-08-25T04:03:49;4.80;;;3.67;;
28774;SDS011;15926;51.348;6.596;2022-08-25T04:06:15;3.53;;;3.33;;
28774;SDS011;15926;51.348;6.596;2022-08-25T04:08:41;4.68;;;3.85;;
28774;SDS011;15926;51.348;6.596;2022-08-25T04:11:09;4.78;;;3.95;;
28774;SDS011;15926;51.348;6.596;2022-08-25T04:13:35;4.45;;;4.07;;
28774;SDS011;15926;51.348;6.596;2022-08-25T04:16:03;4.07;;;3.72;;
28774;SDS011;15926;51.348;6.596;2022-08-25T04:18:29;4.22;;;3.83;;
28774;SDS011;15926;51.348;6.596;2022-08-25T04:21:02;4.05;;;3.45;;
28774;SDS011;15926;51.348;6.596;2022-08-25T04:23:29;4.90;;;4.03;;
28774;SDS011;15926;51.348;6.596;2022-08-25T04:25:55;4.03;;;3.70;;
28774;SDS011;15926;51.348;6.596;2022-08-25T04:28:21;4.40;;;4.05;;
28774;SDS011;15926;51.348;6.596;2022-08-25T04:30:47;6.47;;;3.95;;
28774;SDS011;15926;51.348;6.596;2022-08-25T04:33:13;4.10;;;3.72;;
28774;SDS011;15926;51.348;6.596;2022-08-25T04:35:39;5.93;;;4.00;;
28774;SDS011;15926;51.348;6.596;2022-08-25T04:38:05;6.70;;;4.00;;
28774;SDS011;15926;51.348;6.596;2022-08-25T04:40:31;4.57;;;3.72;;
28774;SDS011;15926;51.348;6.596;2022-08-25T04:42:57;4.57;;;4.22;;
28774;SDS011;15926;51.348;6.596;2022-08-25T04:45:23;4.65;;;4.20;;
28774;SDS011;15926;51.348;6.596;2022-08-25T04:47:49;5.75;;;3.92;;
28774;SDS011;15926;51.348;6.596;2022-08-25T04:50:16;5.85;;;4.32;;
28774;SDS011;15926;51.348;6.596;2022-08-25T04:52:42;7.88;;;4.10;;
28774;SDS011;15926;51.348;6.596;2022-08-25T04:55:08;4.45;;;3.92;;
28774;SDS011;15926;51.348;6.596;2022-08-25T04:57:34;6.40;;;4.47;;
28774;SDS011;15926;51.348;6.596;2022-08-25T05:00:00;4.70;;;4.30;;
28774;SDS011;15926;51.348;6.596;2022-08-25T05:02:26;5.05;;;4.55;;
28774;SDS011;15926;51.348;6.596;2022-08-25T05:04:53;8.02;;;4.43;;
28774;SDS011;15926;51.348;6.596;2022-08-25T05:07:19;5.63;;;4.22;;
28774;SDS011;15926;51.348;6.596;2022-08-25T05:09:45;4.20;;;3.75;;
28774;SDS011;15926;51.348;6.596;2022-08-25T05:12:11;5.85;;;4.05;;
28774;SDS011;15926;51.348;6.596;2022-08-25T05:14:37;5.15;;;4.05;;
28774;SDS011;15926;51.348;6.596;2022-08-25T05:17:03;5.25;;;4.75;;
28774;SDS011;15926;51.348;6.596;2022-08-25T05:19:30;7.50;;;4.25;;
28774;SDS011;15926;51.348;6.596;2022-08-25T05:22:00;6.88;;;4.40;;
28774;SDS011;15926;51.348;6.596;2022-08-25T05:24:38;5.50;;;4.32;;
28774;SDS011;15926;51.348;6.596;2022-08-25T05:27:36;6.03;;;4.28;;
28774;SDS011;15926;51.348;6.596;2022-08-25T05:30:02;4.00;;;3.70;;
28774;SDS011;15926;51.348;6.596;2022-08-25T05:32:29;5.32;;;4.60;;
28774;SDS011;15926;51.348;6.596;2022-08-25T05:34:55;7.72;;;4.30;;
28774;SDS011;15926;51.348;6.596;2022-08-25T05:37:21;7.97;;;4.63;;
28774;SDS011;15926;51.348;6.596;2022-08-25T05:39:47;7.38;;;4.68;;
28774;SDS011;15926;51.348;6.596;2022-08-25T05:42:13;5.85;;;4.28;;
28774;SDS011;15926;51.348;6.596;2022-08-25T05:44:40;7.20;;;4.50;;
28774;SDS011;15926;51.348;6.596;2022-08-25T05:47:06;7.05;;;5.18;;
28774;SDS011;15926;51.348;6.596;2022-08-25T05:49:32;8.75;;;5.40;;
28774;SDS011;15926;51.348;6.596;2022-08-25T05:51:58;7.50;;;5.35;;
28774;SDS011;15926;51.348;6.596;2022-08-25T05:54:24;7.35;;;4.47;;
28774;SDS011;15926;51.348;6.596;2022-08-25T05:56:50;5.80;;;5.03;;
28774;SDS011;15926;51.348;6.596;2022-08-25T05:59:16;9.88;;;5.25;;
28774;SDS011;15926;51.348;6.596;2022-08-25T06:01:42;16.05;;;5.35;;
28774;SDS011;15926;51.348;6.596;2022-08-25T06:04:27;7.40;;;4.88;;
28774;SDS011;15926;51.348;6.596;2022-08-25T06:06:53;8.02;;;4.60;;
28774;SDS011;15926;51.348;6.596;2022-08-25T06:09:22;5.45;;;4.95;;
28774;SDS011;15926;51.348;6.596;2022-08-25T06:11:48;6.95;;;5.03;;
28774;SDS011;15926;51.348;6.596;2022-08-25T06:14:15;9.57;;;5.05;;
28774;SDS011;15926;51.348;6.596;2022-08-25T06:16:41;9.23;;;4.95;;
28774;SDS011;15926;51.348;6.596;2022-08-25T06:19:07;5.45;;;5.05;;
28774;SDS011;15926;51.348;6.596;2022-08-25T06:21:34;14.50;;;5.28;;
28774;SDS011;15926;51.348;6.596;2022-08-25T06:24:03;6.85;;;4.80;;
28774;SDS011;15926;51.348;6.596;2022-08-25T06:26:29;8.45;;;5.05;;
28774;SDS011;15926;51.348;6.596;2022-08-25T06:28:55;5.30;;;4.50;;
28774;SDS011;15926;51.348;6.596;2022-08-25T06:31:22;9.88;;;4.60;;
28774;SDS011;15926;51.348;6.596;2022-08-25T06:33:48;7.15;;;4.28;;
28774;SDS011;15926;51.348;6.596;2022-08-25T06:36:14;10.13;;;4.10;;
28774;SDS011;15926;51.348;6.596;2022-08-25T06:38:41;5.50;;;3.72;;
28774;SDS011;15926;51.348;6.596;2022-08-25T06:41:07;7.90;;;4.18;;
28774;SDS011;15926;51.348;6.596;2022-08-25T06:48:35;6.20;;;3.20;;
28774;SDS011;15926;51.348;6.596;2022-08-25T06:51:05;4.65;;;3.03;;
28774;SDS011;15926;51.348;6.596;2022-08-25T06:53:32;11.30;;;4.13;;
28774;SDS011;15926;51.348;6.596;2022-08-25T06:55:58;5.07;;;3.85;;
28774;SDS011;15926;51.348;6.596;2022-08-25T06:58:24;6.50;;;3.15;;
28774;SDS011;15926;51.348;6.596;2022-08-25T07:00:50;6.05;;;3.22;;
28774;SDS011;15926;51.348;6.596;2022-08-25T07:03:17;4.93;;;3.00;;
28774;SDS011;15926;51.348;6.596;2022-08-25T07:05:50;7.20;;;3.20;;
28774;SDS011;15926;51.348;6.596;2022-08-25T07:08:16;3.75;;;3.13;;
28774;SDS011;15926;51.348;6.596;2022-08-25T07:10:43;5.70;;;2.90;;
28774;SDS011;15926;51.348;6.596;2022-08-25T07:13:09;4.65;;;3.35;;
28774;SDS011;15926;51.348;6.596;2022-08-25T07:15:38;6.03;;;3.50;;
28774;SDS011;15926;51.348;6.596;2022-08-25T07:18:05;5.97;;;3.22;;
28774;SDS011;15926;51.348;6.596;2022-08-25T07:20:32;7.05;;;3.05;;
28774;SDS011;15926;51.348;6.596;2022-08-25T07:22:59;6.05;;;3.25;;
28774;SDS011;15926;51.348;6.596;2022-08-25T07:25:25;3.20;;;2.78;;
28774;SDS011;15926;51.348;6.596;2022-08-25T07:27:52;7.40;;;3.47;;
28774;SDS011;15926;51.348;6.596;2022-08-25T07:30:18;5.20;;;3.33;;
28774;SDS011;15926;51.348;6.596;2022-08-25T07:32:44;5.53;;;3.42;;
28774;SDS011;15926;51.348;6.596;2022-08-25T07:35:10;4.65;;;3.97;;
28774;SDS011;15926;51.348;6.596;2022-08-25T07:37:39;7.15;;;3.50;;
28774;SDS011;15926;51.348;6.596;2022-08-25T07:40:05;10.23;;;3.50;;
28774;SDS011;15926;51.348;6.596;2022-08-25T07:42:31;4.30;;;3.28;;
28774;SDS011;15926;51.348;6.596;2022-08-25T07:44:58;4.80;;;3.25;;
28774;SDS011;15926;51.348;6.596;2022-08-25T07:47:24;4.47;;;3.28;;
28774;SDS011;15926;51.348;6.596;2022-08-25T07:49:50;7.00;;;3.45;;
28774;SDS011;15926;51.348;6.596;2022-08-25T07:52:16;5.80;;;3.22;;
28774;SDS011;15926;51.348;6.596;2022-08-25T07:54:42;4.03;;;3.38;;
28774;SDS011;15926;51.348;6.596;2022-08-25T07:57:08;5.22;;;3.38;;
28774;SDS011;15926;51.348;6.596;2022-08-25T07:59:37;4.10;;;3.13;;
28774;SDS011;15926;51.348;6.596;2022-08-25T08:02:04;5.97;;;3.58;;
28774;SDS011;15926;51.348;6.596;2022-08-25T08:04:30;4.97;;;3.08;;
28774;SDS011;15926;51.348;6.596;2022-08-25T08:06:56;7.22;;;3.00;;
28774;SDS011;15926;51.348;6.596;2022-08-25T08:09:22;2.88;;;2.58;;
28774;SDS011;15926;51.348;6.596;2022-08-25T08:11:47;3.50;;;2.85;;
28774;SDS011;15926;51.348;6.596;2022-08-25T08:14:13;4.45;;;3.00;;
28774;SDS011;15926;51.348;6.596;2022-08-25T08:16:40;5.90;;;2.60;;
28774;SDS011;15926;51.348;6.596;2022-08-25T08:19:06;6.85;;;2.90;;
28774;SDS011;15926;51.348;6.596;2022-08-25T08:21:33;2.90;;;2.47;;
28774;SDS011;15926;51.348;6.596;2022-08-25T08:24:00;3.03;;;2.78;;
28774;SDS011;15926;51.348;6.596;2022-08-25T08:26:27;9.68;;;3.10;;
28774;SDS011;15926;51.348;6.596;2022-08-25T08:28:53;4.82;;;2.92;;
28774;SDS011;15926;51.348;6.596;2022-08-25T08:31:19;3.75;;;3.33;;
28774;SDS011;15926;51.348;6.596;2022-08-25T08:33:46;7.85;;;3.85;;
28774;SDS011;15926;51.348;6.596;2022-08-25T08:36:12;4.35;;;2.58;;
28774;SDS011;15926;51.348;6.596;2022-08-25T08:38:39;4.65;;;3.20;;
28774;SDS011;15926;51.348;6.596;2022-08-25T08:44:14;3.40;;;2.63;;
28774;SDS011;15926;51.348;6.596;2022-08-25T08:46:48;3.33;;;2.47;;
28774;SDS011;15926;51.348;6.596;2022-08-25T08:49:20;4.45;;;2.38;;
28774;SDS011;15926;51.348;6.596;2022-08-25T08:51:50;5.22;;;2.53;;
28774;SDS011;15926;51.348;6.596;2022-08-25T08:54:19;4.28;;;2.28;;
28774;SDS011;15926;51.348;6.596;2022-08-25T08:56:49;5.20;;;2.65;;
28774;SDS011;15926;51.348;6.596;2022-08-25T08:59:23;2.70;;;2.50;;
28774;SDS011;15926;51.348;6.596;2022-08-25T09:01:57;3.47;;;2.70;;
28774;SDS011;15926;51.348;6.596;2022-08-25T09:04:26;3.08;;;2.78;;
28774;SDS011;15926;51.348;6.596;2022-08-25T09:06:55;4.60;;;2.50;;
28774;SDS011;15926;51.348;6.596;2022-08-25T09:09:26;3.58;;;2.63;;
28774;SDS011;15926;51.348;6.596;2022-08-25T09:19:58;5.53;;;2.88;;
28774;SDS011;15926;51.348;6.596;2022-08-25T09:25:16;5.13;;;2.78;;
28774;SDS011;15926;51.348;6.596;2022-08-25T09:30:43;3.28;;;2.97;;
28774;SDS011;15926;51.348;6.596;2022-08-25T09:33:10;3.00;;;2.30;;
28774;SDS011;15926;51.348;6.596;2022-08-25T09:35:38;3.78;;;2.40;;
28774;SDS011;15926;51.348;6.596;2022-08-25T09:38:07;3.63;;;3.30;;
28774;SDS011;15926;51.348;6.596;2022-08-25T09:40:35;6.50;;;3.25;;
28774;SDS011;15926;51.348;6.596;2022-08-25T09:43:03;3.13;;;2.92;;
28774;SDS011;15926;51.348;6.596;2022-08-25T09:46:16;6.75;;;3.10;;
28774;SDS011;15926;51.348;6.596;2022-08-25T09:50:45;5.13;;;2.83;;
28774;SDS011;15926;51.348;6.596;2022-08-25T09:53:12;2.50;;;2.28;;
28774;SDS011;15926;51.348;6.596;2022-08-25T09:55:40;3.10;;;2.83;;
28774;SDS011;15926;51.348;6.596;2022-08-25T09:58:16;5.45;;;2.90;;
28774;SDS011;15926;51.348;6.596;2022-08-25T10:00:43;5.53;;;2.85;;
28774;SDS011;15926;51.348;6.596;2022-08-25T10:05:46;2.80;;;2.60;;
28774;SDS011;15926;51.348;6.596;2022-08-25T10:08:25;3.47;;;3.10;;
28774;SDS011;15926;51.348;6.596;2022-08-25T10:10:54;5.25;;;3.28;;
28774;SDS011;15926;51.348;6.596;2022-08-25T10:13:30;5.80;;;2.58;;
28774;SDS011;15926;51.348;6.596;2022-08-25T10:16:11;6.35;;;2.90;;
28774;SDS011;15926;51.348;6.596;2022-08-25T10:18:37;4.53;;;2.65;;
28774;SDS011;15926;51.348;6.596;2022-08-25T10:21:05;6.40;;;3.03;;
28774;SDS011;15926;51.348;6.596;2022-08-25T10:23:32;7.32;;;2.88;;
28774;SDS011;15926;51.348;6.596;2022-08-25T10:26:00;5.03;;;2.90;;
28774;SDS011;15926;51.348;6.596;2022-08-25T10:36:07;2.60;;;2.40;;
28774;SDS011;15926;51.348;6.596;2022-08-25T10:43:52;3.67;;;2.85;;
28774;SDS011;15926;51.348;6.596;2022-08-25T10:47:04;3.22;;;2.42;;
28774;SDS011;15926;51.348;6.596;2022-08-25T10:54:26;2.60;;;1.83;;
28774;SDS011;15926;51.348;6.596;2022-08-25T10:59:49;3.88;;;2.60;;
28774;SDS011;15926;51.348;6.596;2022-08-25T11:02:24;5.57;;;2.60;;
28774;SDS011;15926;51.348;6.596;2022-08-25T11:07:28;4.10;;;2.30;;
28774;SDS011;15926;51.348;6.596;2022-08-25T11:09:57;2.83;;;2.63;;
28774;SDS011;15926;51.348;6.596;2022-08-25T11:12:58;3.03;;;2.22;;
28774;SDS011;15926;51.348;6.596;2022-08-25T11:15:22;2.50;;;2.30;;
28774;SDS011;15926;51.348;6.596;2022-08-25T11:17:54;2.55;;;2.35;;
28774;SDS011;15926;51.348;6.596;2022-08-25T11:20:23;2.80;;;2.28;;
28774;SDS011;15926;51.348;6.596;2022-08-25T11:22:54;2.70;;;2.50;;
28774;SDS011;15926;51.348;6.596;2022-08-25T11:25:25;2.58;;;2.38;;
28774;SDS011;15926;51.348;6.596;2022-08-25T11:30:49;3.30;;;2.35;;
28774;SDS011;15926;51.348;6.596;2022-08-25T11:33:16;2.10;;;2.00;;
28774;SDS011;15926;51.348;6.596;2022-08-25T11:35:47;2.20;;;2.10;;
28774;SDS011;15926;51.348;6.596;2022-08-25T11:38:32;4.32;;;2.20;;
28774;SDS011;15926;51.348;6.596;2022-08-25T11:53:30;1.85;;;1.75;;
28774;SDS011;15926;51.348;6.596;2022-08-25T11:55:58;3.03;;;2.22;;
28774;SDS011;15926;51.348;6.596;2022-08-25T12:00:53;2.72;;;2.53;;
28774;SDS011;15926;51.348;6.596;2022-08-25T12:08:46;2.33;;;2.22;;
28774;SDS011;15926;51.348;6.596;2022-08-25T12:29:46;2.90;;;2.50;;
28774;SDS011;15926;51.348;6.596;2022-08-25T12:37:16;2.70;;;2.50;;
28774;SDS011;15926;51.348;6.596;2022-08-25T12:47:43;2.05;;;1.85;;
28774;SDS011;15926;51.348;6.596;2022-08-25T12:50:34;2.13;;;2.03;;
28774;SDS011;15926;51.348;6.596;2022-08-25T12:53:23;1.77;;;1.67;;
28774;SDS011;15926;51.348;6.596;2022-08-25T12:55:49;2.22;;;2.03;;
28774;SDS011;15926;51.348;6.596;2022-08-25T12:58:16;2.42;;;1.95;;
28774;SDS011;15926;51.348;6.596;2022-08-25T13:09:03;1.90;;;1.80;;
28774;SDS011;15926;51.348;6.596;2022-08-25T13:11:37;1.67;;;1.58;;
28774;SDS011;15926;51.348;6.596;2022-08-25T13:14:06;1.80;;;1.70;;
28774;SDS011;15926;51.348;6.596;2022-08-25T13:16:37;1.70;;;1.60;;
28774;SDS011;15926;51.348;6.596;2022-08-25T13:19:04;3.80;;;2.08;;
28774;SDS011;15926;51.348;6.596;2022-08-25T13:21:40;3.28;;;2.00;;
28774;SDS011;15926;51.348;6.596;2022-08-25T13:26:49;2.60;;;2.40;;
28774;SDS011;15926;51.348;6.596;2022-08-25T13:29:19;2.17;;;2.08;;
28774;SDS011;15926;51.348;6.596;2022-08-25T13:34:19;3.95;;;2.10;;
28774;SDS011;15926;51.348;6.596;2022-08-25T13:36:46;2.20;;;2.10;;
28774;SDS011;15926;51.348;6.596;2022-08-25T13:39:32;2.15;;;2.03;;
28774;SDS011;15926;51.348;6.596;2022-08-25T13:41:59;3.03;;;1.85;;
28774;SDS011;15926;51.348;6.596;2022-08-25T13:44:27;2.03;;;1.67;;
28774;SDS011;15926;51.348;6.596;2022-08-25T13:49:32;2.40;;;1.58;;
28774;SDS011;15926;51.348;6.596;2022-08-25T13:51:58;1.92;;;1.83;;
28774;SDS011;15926;51.348;6.596;2022-08-25T13:54:35;1.85;;;1.75;;
28774;SDS011;15926;51.348;6.596;2022-08-25T13:57:02;1.70;;;1.60;;
28774;SDS011;15926;51.348;6.596;2022-08-25T13:59:33;2.30;;;2.13;;
28774;SDS011;15926;51.348;6.596;2022-08-25T14:02:01;2.40;;;2.20;;
28774;SDS011;15926;51.348;6.596;2022-08-25T14:04:29;2.20;;;1.90;;
28774;SDS011;15926;51.348;6.596;2022-08-25T14:12:00;2.00;;;1.90;;
28774;SDS011;15926;51.348;6.596;2022-08-25T14:16:57;2.38;;;2.17;;
28774;SDS011;15926;51.348;6.596;2022-08-25T14:19:23;2.50;;;2.35;;
28774;SDS011;15926;51.348;6.596;2022-08-25T14:21:49;2.33;;;2.13;;
28774;SDS011;15926;51.348;6.596;2022-08-25T14:24:17;3.05;;;2.20;;
28774;SDS011;15926;51.348;6.596;2022-08-25T14:26:44;2.45;;;2.25;;
28774;SDS011;15926;51.348;6.596;2022-08-25T14:29:11;2.92;;;2.55;;
28774;SDS011;15926;51.348;6.596;2022-08-25T14:31:38;2.17;;;2.05;;
28774;SDS011;15926;51.348;6.596;2022-08-25T14:34:08;2.28;;;2.17;;
28774;SDS011;15926;51.348;6.596;2022-08-25T14:36:35;3.08;;;2.50;;
28774;SDS011;15926;51.348;6.596;2022-08-25T14:39:01;2.55;;;2.20;;
28774;SDS011;15926;51.348;6.596;2022-08-25T14:41:30;3.53;;;2.25;;
28774;SDS011;15926;51.348;6.596;2022-08-25T14:43:58;2.63;;;2.33;;
28774;SDS011;15926;51.348;6.596;2022-08-25T14:46:24;2.38;;;2.17;;
28774;SDS011;15926;51.348;6.596;2022-08-25T14:48:52;2.55;;;2.08;;
28774;SDS011;15926;51.348;6.596;2022-08-25T14:51:19;2.08;;;1.77;;
28774;SDS011;15926;51.348;6.596;2022-08-25T14:53:45;2.42;;;2.22;;
28774;SDS011;15926;51.348;6.596;2022-08-25T14:56:12;2.00;;;1.90;;
28774;SDS011;15926;51.348;6.596;2022-08-25T14:58:38;2.00;;;1.90;;
28774;SDS011;15926;51.348;6.596;2022-08-25T15:01:05;2.10;;;2.00;;
28774;SDS011;15926;51.348;6.596;2022-08-25T15:03:33;2.47;;;2.28;;
28774;SDS011;15926;51.348;6.596;2022-08-25T15:06:01;2.47;;;1.92;;
28774;SDS011;15926;51.348;6.596;2022-08-25T15:08:27;2.88;;;2.20;;
28774;SDS011;15926;51.348;6.596;2022-08-25T15:11:29;2.22;;;2.08;;
28774;SDS011;15926;51.348;6.596;2022-08-25T15:13:55;2.55;;;2.38;;
28774;SDS011;15926;51.348;6.596;2022-08-25T15:16:29;2.28;;;2.08;;
28774;SDS011;15926;51.348;6.596;2022-08-25T15:18:56;2.30;;;2.15;;
28774;SDS011;15926;51.348;6.596;2022-08-25T15:21:22;2.30;;;2.13;;
28774;SDS011;15926;51.348;6.596;2022-08-25T15:23:48;2.17;;;2.00;;
28774;SDS011;15926;51.348;6.596;2022-08-25T15:26:14;4.05;;;2.00;;
28774;SDS011;15926;51.348;6.596;2022-08-25T15:28:44;1.92;;;1.80;;
28774;SDS011;15926;51.348;6.596;2022-08-25T15:31:12;2.00;;;1.90;;
28774;SDS011;15926;51.348;6.596;2022-08-25T15:33:38;2.30;;;2.20;;
28774;SDS011;15926;51.348;6.596;2022-08-25T15:36:08;2.60;;;2.15;;
28774;SDS011;15926;51.348;6.596;2022-08-25T15:38:35;1.90;;;1.80;;
28774;SDS011;15926;51.348;6.596;2022-08-25T15:41:01;2.60;;;2.35;;
28774;SDS011;15926;51.348;6.596;2022-08-25T15:43:28;3.15;;;2.90;;
28774;SDS011;15926;51.348;6.596;2022-08-25T15:45:54;2.15;;;2.05;;
28774;SDS011;15926;51.348;6.596;2022-08-25T15:48:20;2.30;;;2.17;;
28774;SDS011;15926;51.348;6.596;2022-08-25T15:50:46;2.58;;;2.40;;
28774;SDS011;15926;51.348;6.596;2022-08-25T15:53:12;2.67;;;2.47;;
28774;SDS011;15926;51.348;6.596;2022-08-25T15:55:39;2.70;;;2.28;;
28774;SDS011;15926;51.348;6.596;2022-08-25T15:58:05;2.58;;;2.38;;
28774;SDS011;15926;51.348;6.596;2022-08-25T16:00:31;3.17;;;2.65;;
28774;SDS011;15926;51.348;6.596;2022-08-25T16:02:57;2.63;;;2.38;;
28774;SDS011;15926;51.348;6.596;2022-08-25T16:05:23;2.95;;;2.78;;
28774;SDS011;15926;51.348;6.596;2022-08-25T16:07:49;2.30;;;2.20;;
28774;SDS011;15926;51.348;6.596;2022-08-25T16:10:15;3.78;;;2.20;;
28774;SDS011;15926;51.348;6.596;2022-08-25T16:12:41;5.03;;;2.30;;
28774;SDS011;15926;51.348;6.596;2022-08-25T16:15:08;2.20;;;2.10;;
28774;SDS011;15926;51.348;6.596;2022-08-25T16:17:34;2.35;;;2.25;;
28774;SDS011;15926;51.348;6.596;2022-08-25T16:20:00;2.20;;;2.10;;
28774;SDS011;15926;51.348;6.596;2022-08-25T16:22:26;3.03;;;2.45;;
28774;SDS011;15926;51.348;6.596;2022-08-25T16:24:52;2.03;;;1.92;;
28774;SDS011;15926;51.348;6.596;2022-08-25T16:27:18;1.77;;;1.67;;
28774;SDS011;15926;51.348;6.596;2022-08-25T16:29:44;2.38;;;2.17;;
28774;SDS011;15926;51.348;6.596;2022-08-25T16:32:11;2.25;;;2.05;;
28774;SDS011;15926;51.348;6.596;2022-08-25T16:34:38;3.13;;;2.42;;
28774;SDS011;15926;51.348;6.596;2022-08-25T16:37:04;2.42;;;2.22;;
28774;SDS011;15926;51.348;6.596;2022-08-25T16:39:31;2.40;;;2.20;;
28774;SDS011;15926;51.348;6.596;2022-08-25T16:41:57;4.18;;;2.40;;
28774;SDS011;15926;51.348;6.596;2022-08-25T16:44:23;3.92;;;3.10;;
28774;SDS011;15926;51.348;6.596;2022-08-25T16:46:49;3.13;;;2.45;;
28774;SDS011;15926;51.348;6.596;2022-08-25T16:49:18;4.40;;;2.47;;
28774;SDS011;15926;51.348;6.596;2022-08-25T16:51:44;3.78;;;2.63;;
28774;SDS011;15926;51.348;6.596;2022-08-25T16:54:10;3.22;;;2.78;;
28774;SDS011;15926;51.348;6.596;2022-08-25T16:56:55;2.95;;;2.58;;
28774;SDS011;15926;51.348;6.596;2022-08-25T16:59:22;3.15;;;2.50;;
28774;SDS011;15926;51.348;6.596;2022-08-25T17:01:49;3.13;;;2.42;;
28774;SDS011;15926;51.348;6.596;2022-08-25T17:04:15;2.70;;;2.50;;
28774;SDS011;15926;51.348;6.596;2022-08-25T17:06:41;2.83;;;2.30;;